sensor_id;sensor_type;location;lat;lon;timestamp;P1;durP1;ratioP1;P2;durP2;ratioP2
38940;SDS011;43236;47.208;7.518;2023-04-15T00:00:03;3.72;;;1.27;;
38940;SDS011;43236;47.208;7.518;2023-04-15T00:02:51;3.10;;;1.10;;
38940;SDS011;43236;47.208;7.518;2023-04-15T00:05:38;3.47;;;1.27;;
38940;SDS011;43236;47.208;7.518;2023-04-15T00:08:25;2.83;;;1.20;;
38940;SDS011;43236;47.208;7.518;2023-04-15T00:11:13;4.80;;;1.35;;
38940;SDS011;43236;47.208;7.518;2023-04-15T00:14:00;7.47;;;1.20;;
38940;SDS011;43236;47.208;7.518;2023-04-15T00:16:48;2.55;;;1.00;;
38940;SDS011;43236;47.208;7.518;2023-04-15T00:19:40;3.35;;;1.08;;
38940;SDS011;43236;47.208;7.518;2023-04-15T00:22:28;7.38;;;1.30;;
38940;SDS011;43236;47.208;7.518;2023-04-15T00:25:15;2.53;;;1.10;;
38940;SDS011;43236;47.208;7.518;2023-04-15T00:28:02;6.57;;;1.00;;
38940;SDS011;43236;47.208;7.518;2023-04-15T00:30:49;9.07;;;1.33;;
38940;SDS011;43236;47.208;7.518;2023-04-15T00:33:38;2.35;;;0.95;;
38940;SDS011;43236;47.208;7.518;2023-04-15T00:36:25;3.38;;;1.10;;
38940;SDS011;43236;47.208;7.518;2023-04-15T00:39:12;3.72;;;1.30;;
38940;SDS011;43236;47.208;7.518;2023-04-15T00:42:00;2.78;;;1.20;;
38940;SDS011;43236;47.208;7.518;2023-04-15T00:44:48;3.08;;;1.27;;
38940;SDS011;43236;47.208;7.518;2023-04-15T00:47:35;2.78;;;1.15;;
38940;SDS011;43236;47.208;7.518;2023-04-15T00:50:25;2.08;;;1.00;;
38940;SDS011;43236;47.208;7.518;2023-04-15T00:53:12;5.65;;;1.27;;
38940;SDS011;43236;47.208;7.518;2023-04-15T00:55:59;2.85;;;1.00;;
38940;SDS011;43236;47.208;7.518;2023-04-15T00:58:46;5.35;;;1.25;;
38940;SDS011;43236;47.208;7.518;2023-04-15T01:01:34;3.38;;;1.20;;
38940;SDS011;43236;47.208;7.518;2023-04-15T01:04:22;4.78;;;1.10;;
38940;SDS011;43236;47.208;7.518;2023-04-15T01:07:11;3.25;;;1.10;;
38940;SDS011;43236;47.208;7.518;2023-04-15T01:09:58;2.67;;;1.10;;
38940;SDS011;43236;47.208;7.518;2023-04-15T01:12:46;1.85;;;0.85;;
38940;SDS011;43236;47.208;7.518;2023-04-15T01:15:34;7.13;;;1.63;;
38940;SDS011;43236;47.208;7.518;2023-04-15T01:18:21;4.13;;;1.00;;
38940;SDS011;43236;47.208;7.518;2023-04-15T01:21:09;3.92;;;1.38;;
38940;SDS011;43236;47.208;7.518;2023-04-15T01:23:57;4.55;;;1.25;;
38940;SDS011;43236;47.208;7.518;2023-04-15T01:26:48;3.45;;;0.80;;
38940;SDS011;43236;47.208;7.518;2023-04-15T01:29:37;3.17;;;1.05;;
38940;SDS011;43236;47.208;7.518;2023-04-15T01:32:24;2.50;;;0.90;;
38940;SDS011;43236;47.208;7.518;2023-04-15T01:35:11;4.32;;;0.90;;
38940;SDS011;43236;47.208;7.518;2023-04-15T01:38:01;3.38;;;0.90;;
38940;SDS011;43236;47.208;7.518;2023-04-15T01:40:51;6.22;;;0.93;;
38940;SDS011;43236;47.208;7.518;2023-04-15T01:43:40;4.25;;;0.80;;
38940;SDS011;43236;47.208;7.518;2023-04-15T01:46:27;4.97;;;0.75;;
38940;SDS011;43236;47.208;7.518;2023-04-15T01:49:14;2.45;;;0.75;;
38940;SDS011;43236;47.208;7.518;2023-04-15T01:52:01;3.70;;;0.70;;
38940;SDS011;43236;47.208;7.518;2023-04-15T01:54:48;2.13;;;0.85;;
38940;SDS011;43236;47.208;7.518;2023-04-15T01:57:36;3.33;;;0.80;;
38940;SDS011;43236;47.208;7.518;2023-04-15T02:00:24;4.70;;;0.90;;
38940;SDS011;43236;47.208;7.518;2023-04-15T02:03:12;1.65;;;0.50;;
38940;SDS011;43236;47.208;7.518;2023-04-15T02:05:59;1.05;;;0.63;;
38940;SDS011;43236;47.208;7.518;2023-04-15T02:08:46;1.23;;;0.70;;
38940;SDS011;43236;47.208;7.518;2023-04-15T02:11:33;3.15;;;0.90;;
38940;SDS011;43236;47.208;7.518;2023-04-15T02:14:21;1.40;;;0.68;;
38940;SDS011;43236;47.208;7.518;2023-04-15T02:17:09;6.00;;;0.90;;
38940;SDS011;43236;47.208;7.518;2023-04-15T02:19:57;2.67;;;0.90;;
38940;SDS011;43236;47.208;7.518;2023-04-15T02:22:44;4.40;;;0.95;;
38940;SDS011;43236;47.208;7.518;2023-04-15T02:25:31;1.80;;;0.80;;
38940;SDS011;43236;47.208;7.518;2023-04-15T02:28:18;1.38;;;0.70;;
38940;SDS011;43236;47.208;7.518;2023-04-15T02:31:05;4.57;;;0.93;;
38940;SDS011;43236;47.208;7.518;2023-04-15T02:33:55;4.57;;;0.82;;
38940;SDS011;43236;47.208;7.518;2023-04-15T02:36:42;4.53;;;1.27;;
38940;SDS011;43236;47.208;7.518;2023-04-15T02:39:29;6.32;;;1.30;;
38940;SDS011;43236;47.208;7.518;2023-04-15T02:42:16;5.18;;;1.40;;
38940;SDS011;43236;47.208;7.518;2023-04-15T02:45:04;3.40;;;1.13;;
38940;SDS011;43236;47.208;7.518;2023-04-15T02:47:51;2.30;;;1.30;;
38940;SDS011;43236;47.208;7.518;2023-04-15T02:50:40;2.35;;;1.08;;
38940;SDS011;43236;47.208;7.518;2023-04-15T02:53:27;3.45;;;1.00;;
38940;SDS011;43236;47.208;7.518;2023-04-15T02:56:14;7.20;;;1.77;;
38940;SDS011;43236;47.208;7.518;2023-04-15T02:59:01;2.72;;;1.02;;
38940;SDS011;43236;47.208;7.518;2023-04-15T03:01:49;5.10;;;1.20;;
38940;SDS011;43236;47.208;7.518;2023-04-15T03:04:36;6.28;;;1.02;;
38940;SDS011;43236;47.208;7.518;2023-04-15T03:07:25;2.38;;;1.00;;
38940;SDS011;43236;47.208;7.518;2023-04-15T03:10:12;2.50;;;0.90;;
38940;SDS011;43236;47.208;7.518;2023-04-15T03:12:59;3.47;;;1.30;;
38940;SDS011;43236;47.208;7.518;2023-04-15T03:15:46;1.80;;;1.08;;
38940;SDS011;43236;47.208;7.518;2023-04-15T03:18:33;5.10;;;1.30;;
38940;SDS011;43236;47.208;7.518;2023-04-15T03:21:20;3.67;;;1.30;;
38940;SDS011;43236;47.208;7.518;2023-04-15T03:24:09;3.50;;;1.33;;
38940;SDS011;43236;47.208;7.518;2023-04-15T03:26:56;3.60;;;1.40;;
38940;SDS011;43236;47.208;7.518;2023-04-15T03:29:43;3.70;;;1.48;;
38940;SDS011;43236;47.208;7.518;2023-04-15T03:32:30;5.20;;;1.33;;
38940;SDS011;43236;47.208;7.518;2023-04-15T03:35:17;5.88;;;1.50;;
38940;SDS011;43236;47.208;7.518;2023-04-15T03:38:04;2.95;;;1.20;;
38940;SDS011;43236;47.208;7.518;2023-04-15T03:40:53;6.00;;;1.13;;
38940;SDS011;43236;47.208;7.518;2023-04-15T03:43:40;3.25;;;1.02;;
38940;SDS011;43236;47.208;7.518;2023-04-15T03:46:27;4.70;;;1.55;;
38940;SDS011;43236;47.208;7.518;2023-04-15T03:49:14;8.35;;;1.85;;
38940;SDS011;43236;47.208;7.518;2023-04-15T03:52:01;4.72;;;1.70;;
38940;SDS011;43236;47.208;7.518;2023-04-15T03:54:48;3.47;;;1.30;;
38940;SDS011;43236;47.208;7.518;2023-04-15T03:57:37;3.95;;;1.20;;
38940;SDS011;43236;47.208;7.518;2023-04-15T04:00:24;5.20;;;1.58;;
38940;SDS011;43236;47.208;7.518;2023-04-15T04:03:11;3.13;;;1.50;;
38940;SDS011;43236;47.208;7.518;2023-04-15T04:05:58;4.10;;;1.75;;
38940;SDS011;43236;47.208;7.518;2023-04-15T04:08:45;3.35;;;1.67;;
38940;SDS011;43236;47.208;7.518;2023-04-15T04:11:32;3.75;;;1.83;;
38940;SDS011;43236;47.208;7.518;2023-04-15T04:14:20;4.13;;;1.65;;
38940;SDS011;43236;47.208;7.518;2023-04-15T04:17:13;3.17;;;1.38;;
38940;SDS011;43236;47.208;7.518;2023-04-15T04:20:00;3.88;;;1.73;;
38940;SDS011;43236;47.208;7.518;2023-04-15T04:22:47;6.43;;;1.90;;
38940;SDS011;43236;47.208;7.518;2023-04-15T04:25:35;3.15;;;1.63;;
38940;SDS011;43236;47.208;7.518;2023-04-15T04:28:22;4.40;;;1.63;;
38940;SDS011;43236;47.208;7.518;2023-04-15T04:31:10;3.95;;;1.85;;
38940;SDS011;43236;47.208;7.518;2023-04-15T04:33:57;4.78;;;2.05;;
38940;SDS011;43236;47.208;7.518;2023-04-15T04:36:44;6.18;;;1.90;;
38940;SDS011;43236;47.208;7.518;2023-04-15T04:39:31;4.22;;;1.63;;
38940;SDS011;43236;47.208;7.518;2023-04-15T04:42:18;4.97;;;1.90;;
38940;SDS011;43236;47.208;7.518;2023-04-15T04:45:06;3.85;;;1.73;;
38940;SDS011;43236;47.208;7.518;2023-04-15T04:47:55;3.05;;;1.75;;
38940;SDS011;43236;47.208;7.518;2023-04-15T04:50:43;9.75;;;1.63;;
38940;SDS011;43236;47.208;7.518;2023-04-15T04:53:31;6.18;;;2.00;;
38940;SDS011;43236;47.208;7.518;2023-04-15T04:56:18;5.43;;;1.92;;
38940;SDS011;43236;47.208;7.518;2023-04-15T04:59:05;3.63;;;1.73;;
38940;SDS011;43236;47.208;7.518;2023-04-15T05:01:52;5.30;;;1.77;;
38940;SDS011;43236;47.208;7.518;2023-04-15T05:04:40;8.98;;;2.08;;
38940;SDS011;43236;47.208;7.518;2023-04-15T05:07:27;4.20;;;1.70;;
38940;SDS011;43236;47.208;7.518;2023-04-15T05:10:14;6.13;;;1.92;;
38940;SDS011;43236;47.208;7.518;2023-04-15T05:13:02;4.68;;;1.88;;
38940;SDS011;43236;47.208;7.518;2023-04-15T05:15:49;4.93;;;1.83;;
38940;SDS011;43236;47.208;7.518;2023-04-15T05:18:36;4.93;;;2.13;;
38940;SDS011;43236;47.208;7.518;2023-04-15T05:21:25;5.13;;;1.90;;
38940;SDS011;43236;47.208;7.518;2023-04-15T05:24:12;6.13;;;1.90;;
38940;SDS011;43236;47.208;7.518;2023-04-15T05:27:00;5.88;;;2.17;;
38940;SDS011;43236;47.208;7.518;2023-04-15T05:29:47;9.18;;;2.22;;
38940;SDS011;43236;47.208;7.518;2023-04-15T05:32:34;3.85;;;2.08;;
38940;SDS011;43236;47.208;7.518;2023-04-15T05:35:21;3.30;;;1.65;;
38940;SDS011;43236;47.208;7.518;2023-04-15T05:38:09;13.13;;;5.00;;
38940;SDS011;43236;47.208;7.518;2023-04-15T05:40:56;8.55;;;2.80;;
38940;SDS011;43236;47.208;7.518;2023-04-15T05:43:43;4.50;;;2.10;;
38940;SDS011;43236;47.208;7.518;2023-04-15T05:46:30;3.50;;;2.15;;
38940;SDS011;43236;47.208;7.518;2023-04-15T05:49:17;5.57;;;1.77;;
38940;SDS011;43236;47.208;7.518;2023-04-15T05:52:04;5.57;;;1.90;;
38940;SDS011;43236;47.208;7.518;2023-04-15T05:54:53;3.58;;;1.90;;
38940;SDS011;43236;47.208;7.518;2023-04-15T05:57:40;6.55;;;2.05;;
38940;SDS011;43236;47.208;7.518;2023-04-15T06:00:27;5.20;;;1.92;;
38940;SDS011;43236;47.208;7.518;2023-04-15T06:03:14;4.00;;;1.83;;
38940;SDS011;43236;47.208;7.518;2023-04-15T06:06:02;4.47;;;2.05;;
38940;SDS011;43236;47.208;7.518;2023-04-15T06:08:49;4.30;;;2.00;;
38940;SDS011;43236;47.208;7.518;2023-04-15T06:11:37;3.33;;;1.73;;
38940;SDS011;43236;47.208;7.518;2023-04-15T06:14:25;6.22;;;2.30;;
38940;SDS011;43236;47.208;7.518;2023-04-15T06:17:12;3.47;;;1.50;;
38940;SDS011;43236;47.208;7.518;2023-04-15T06:20:02;3.78;;;1.63;;
38940;SDS011;43236;47.208;7.518;2023-04-15T06:22:50;3.10;;;1.40;;
38940;SDS011;43236;47.208;7.518;2023-04-15T06:25:38;3.05;;;1.05;;
38940;SDS011;43236;47.208;7.518;2023-04-15T06:28:26;4.82;;;1.42;;
38940;SDS011;43236;47.208;7.518;2023-04-15T06:31:13;2.95;;;1.65;;
38940;SDS011;43236;47.208;7.518;2023-04-15T06:34:00;7.40;;;1.85;;
38940;SDS011;43236;47.208;7.518;2023-04-15T06:36:47;4.22;;;1.90;;
38940;SDS011;43236;47.208;7.518;2023-04-15T06:39:35;5.50;;;2.00;;
38940;SDS011;43236;47.208;7.518;2023-04-15T06:42:22;3.38;;;1.63;;
38940;SDS011;43236;47.208;7.518;2023-04-15T06:45:11;4.53;;;1.65;;
38940;SDS011;43236;47.208;7.518;2023-04-15T06:47:58;6.18;;;1.60;;
38940;SDS011;43236;47.208;7.518;2023-04-15T06:50:46;2.47;;;1.15;;
38940;SDS011;43236;47.208;7.518;2023-04-15T06:53:33;3.10;;;1.40;;
38940;SDS011;43236;47.208;7.518;2023-04-15T06:56:25;4.47;;;1.90;;
38940;SDS011;43236;47.208;7.518;2023-04-15T06:59:12;2.92;;;1.48;;
38940;SDS011;43236;47.208;7.518;2023-04-15T07:02:00;4.78;;;1.52;;
38940;SDS011;43236;47.208;7.518;2023-04-15T07:04:48;3.55;;;1.38;;
38940;SDS011;43236;47.208;7.518;2023-04-15T07:07:35;3.33;;;1.45;;
38940;SDS011;43236;47.208;7.518;2023-04-15T07:10:22;3.03;;;1.40;;
38940;SDS011;43236;47.208;7.518;2023-04-15T07:13:09;8.07;;;1.92;;
38940;SDS011;43236;47.208;7.518;2023-04-15T07:15:56;6.20;;;1.80;;
38940;SDS011;43236;47.208;7.518;2023-04-15T07:18:45;3.65;;;1.65;;
38940;SDS011;43236;47.208;7.518;2023-04-15T07:21:32;2.72;;;1.60;;
38940;SDS011;43236;47.208;7.518;2023-04-15T07:24:19;3.65;;;1.80;;
38940;SDS011;43236;47.208;7.518;2023-04-15T07:27:10;5.60;;;1.73;;
38940;SDS011;43236;47.208;7.518;2023-04-15T07:29:57;4.93;;;1.80;;
38940;SDS011;43236;47.208;7.518;2023-04-15T07:32:45;5.43;;;1.77;;
38940;SDS011;43236;47.208;7.518;2023-04-15T07:35:33;3.47;;;1.70;;
38940;SDS011;43236;47.208;7.518;2023-04-15T07:38:20;3.78;;;1.30;;
38940;SDS011;43236;47.208;7.518;2023-04-15T07:41:07;3.55;;;1.50;;
38940;SDS011;43236;47.208;7.518;2023-04-15T07:43:54;3.38;;;1.40;;
38940;SDS011;43236;47.208;7.518;2023-04-15T07:46:41;3.60;;;1.25;;
38940;SDS011;43236;47.208;7.518;2023-04-15T07:49:28;3.13;;;1.20;;
38940;SDS011;43236;47.208;7.518;2023-04-15T07:52:17;3.13;;;1.55;;
38940;SDS011;43236;47.208;7.518;2023-04-15T07:55:05;3.08;;;1.40;;
38940;SDS011;43236;47.208;7.518;2023-04-15T07:57:52;3.53;;;1.50;;
38940;SDS011;43236;47.208;7.518;2023-04-15T08:00:40;4.25;;;1.40;;
38940;SDS011;43236;47.208;7.518;2023-04-15T08:03:27;3.35;;;1.65;;
38940;SDS011;43236;47.208;7.518;2023-04-15T08:06:14;5.43;;;1.42;;
38940;SDS011;43236;47.208;7.518;2023-04-15T08:09:02;2.47;;;1.33;;
38940;SDS011;43236;47.208;7.518;2023-04-15T08:11:49;2.80;;;1.23;;
38940;SDS011;43236;47.208;7.518;2023-04-15T08:14:36;3.60;;;2.03;;
38940;SDS011;43236;47.208;7.518;2023-04-15T08:17:23;4.57;;;1.38;;
38940;SDS011;43236;47.208;7.518;2023-04-15T08:20:10;3.85;;;1.40;;
38940;SDS011;43236;47.208;7.518;2023-04-15T08:22:58;4.00;;;1.25;;
38940;SDS011;43236;47.208;7.518;2023-04-15T08:25:47;4.28;;;1.33;;
38940;SDS011;43236;47.208;7.518;2023-04-15T08:28:36;4.20;;;1.40;;
38940;SDS011;43236;47.208;7.518;2023-04-15T08:31:25;4.80;;;1.40;;
38940;SDS011;43236;47.208;7.518;2023-04-15T08:34:14;4.90;;;1.38;;
38940;SDS011;43236;47.208;7.518;2023-04-15T08:37:02;3.50;;;1.25;;
38940;SDS011;43236;47.208;7.518;2023-04-15T08:39:49;3.13;;;1.10;;
38940;SDS011;43236;47.208;7.518;2023-04-15T08:42:43;3.75;;;1.30;;
38940;SDS011;43236;47.208;7.518;2023-04-15T08:45:35;8.63;;;1.30;;
38940;SDS011;43236;47.208;7.518;2023-04-15T08:48:24;5.75;;;1.20;;
38940;SDS011;43236;47.208;7.518;2023-04-15T08:51:15;4.10;;;1.10;;
38940;SDS011;43236;47.208;7.518;2023-04-15T08:54:02;2.78;;;0.98;;
38940;SDS011;43236;47.208;7.518;2023-04-15T08:56:50;3.42;;;1.10;;
38940;SDS011;43236;47.208;7.518;2023-04-15T08:59:39;3.08;;;1.27;;
38940;SDS011;43236;47.208;7.518;2023-04-15T09:02:27;2.63;;;1.35;;
38940;SDS011;43236;47.208;7.518;2023-04-15T09:05:15;3.25;;;1.60;;
38940;SDS011;43236;47.208;7.518;2023-04-15T09:08:03;5.82;;;1.63;;
38940;SDS011;43236;47.208;7.518;2023-04-15T09:10:50;3.55;;;1.50;;
38940;SDS011;43236;47.208;7.518;2023-04-15T09:13:39;2.75;;;1.20;;
38940;SDS011;43236;47.208;7.518;2023-04-15T09:16:27;4.18;;;1.30;;
38940;SDS011;43236;47.208;7.518;2023-04-15T09:19:19;3.15;;;1.30;;
38940;SDS011;43236;47.208;7.518;2023-04-15T09:22:07;4.97;;;1.35;;
38940;SDS011;43236;47.208;7.518;2023-04-15T09:24:54;5.10;;;1.45;;
38940;SDS011;43236;47.208;7.518;2023-04-15T09:27:45;4.60;;;1.50;;
38940;SDS011;43236;47.208;7.518;2023-04-15T09:30:33;2.90;;;1.25;;
38940;SDS011;43236;47.208;7.518;2023-04-15T09:33:22;4.28;;;1.60;;
38940;SDS011;43236;47.208;7.518;2023-04-15T09:36:10;2.75;;;1.30;;
38940;SDS011;43236;47.208;7.518;2023-04-15T09:38:58;2.53;;;1.30;;
38940;SDS011;43236;47.208;7.518;2023-04-15T09:41:46;3.47;;;1.35;;
38940;SDS011;43236;47.208;7.518;2023-04-15T09:44:33;4.50;;;1.25;;
38940;SDS011;43236;47.208;7.518;2023-04-15T09:47:25;2.80;;;1.30;;
38940;SDS011;43236;47.208;7.518;2023-04-15T09:50:15;6.80;;;1.40;;
38940;SDS011;43236;47.208;7.518;2023-04-15T09:53:02;6.13;;;1.67;;
38940;SDS011;43236;47.208;7.518;2023-04-15T09:55:49;6.55;;;1.90;;
38940;SDS011;43236;47.208;7.518;2023-04-15T09:58:37;4.10;;;1.40;;
38940;SDS011;43236;47.208;7.518;2023-04-15T10:01:26;6.90;;;1.83;;
38940;SDS011;43236;47.208;7.518;2023-04-15T10:04:13;4.65;;;1.60;;
38940;SDS011;43236;47.208;7.518;2023-04-15T10:07:03;4.43;;;1.70;;
38940;SDS011;43236;47.208;7.518;2023-04-15T10:09:51;4.95;;;1.50;;
38940;SDS011;43236;47.208;7.518;2023-04-15T10:12:39;5.22;;;1.70;;
38940;SDS011;43236;47.208;7.518;2023-04-15T10:15:27;8.77;;;1.73;;
38940;SDS011;43236;47.208;7.518;2023-04-15T10:18:15;5.43;;;1.65;;
38940;SDS011;43236;47.208;7.518;2023-04-15T10:21:04;5.68;;;1.80;;
38940;SDS011;43236;47.208;7.518;2023-04-15T10:23:55;2.33;;;1.17;;
38940;SDS011;43236;47.208;7.518;2023-04-15T10:26:43;3.47;;;1.00;;
38940;SDS011;43236;47.208;7.518;2023-04-15T10:29:31;2.60;;;0.77;;
38940;SDS011;43236;47.208;7.518;2023-04-15T10:32:18;1.92;;;0.80;;
38940;SDS011;43236;47.208;7.518;2023-04-15T10:35:06;2.97;;;1.00;;
38940;SDS011;43236;47.208;7.518;2023-04-15T10:37:55;2.47;;;0.73;;
38940;SDS011;43236;47.208;7.518;2023-04-15T10:40:43;1.90;;;0.80;;
38940;SDS011;43236;47.208;7.518;2023-04-15T10:43:31;3.75;;;0.90;;
38940;SDS011;43236;47.208;7.518;2023-04-15T10:46:20;3.83;;;1.17;;
38940;SDS011;43236;47.208;7.518;2023-04-15T10:49:10;3.60;;;0.80;;
38940;SDS011;43236;47.208;7.518;2023-04-15T10:51:58;1.65;;;0.77;;
38940;SDS011;43236;47.208;7.518;2023-04-15T10:54:45;2.40;;;0.80;;
38940;SDS011;43236;47.208;7.518;2023-04-15T10:57:39;2.17;;;0.88;;
38940;SDS011;43236;47.208;7.518;2023-04-15T11:00:27;2.10;;;1.00;;
38940;SDS011;43236;47.208;7.518;2023-04-15T11:03:15;2.13;;;0.75;;
38940;SDS011;43236;47.208;7.518;2023-04-15T11:06:03;0.70;;;0.60;;
38940;SDS011;43236;47.208;7.518;2023-04-15T11:08:55;2.33;;;0.70;;
38940;SDS011;43236;47.208;7.518;2023-04-15T11:14:55;3.47;;;0.80;;
38940;SDS011;43236;47.208;7.518;2023-04-15T11:17:43;0.57;;;0.40;;
38940;SDS011;43236;47.208;7.518;2023-04-15T11:20:30;0.52;;;0.30;;
38940;SDS011;43236;47.208;7.518;2023-04-15T11:23:18;0.40;;;0.20;;
38940;SDS011;43236;47.208;7.518;2023-04-15T11:26:12;0.50;;;0.20;;
38940;SDS011;43236;47.208;7.518;2023-04-15T11:28:59;0.10;;;0.10;;
38940;SDS011;43236;47.208;7.518;2023-04-15T11:31:48;0.20;;;0.20;;
38940;SDS011;43236;47.208;7.518;2023-04-15T11:34:35;1.25;;;0.60;;
38940;SDS011;43236;47.208;7.518;2023-04-15T11:37:26;2.40;;;0.10;;
38940;SDS011;43236;47.208;7.518;2023-04-15T11:40:14;0.75;;;0.40;;
38940;SDS011;43236;47.208;7.518;2023-04-15T11:43:03;0.10;;;0.10;;
38940;SDS011;43236;47.208;7.518;2023-04-15T11:45:51;0.20;;;0.20;;
38940;SDS011;43236;47.208;7.518;2023-04-15T11:48:42;0.10;;;0.10;;
38940;SDS011;43236;47.208;7.518;2023-04-15T11:51:31;0.10;;;0.10;;
38940;SDS011;43236;47.208;7.518;2023-04-15T11:54:19;0.17;;;0.17;;
38940;SDS011;43236;47.208;7.518;2023-04-15T11:57:06;0.80;;;0.20;;
38940;SDS011;43236;47.208;7.518;2023-04-15T11:59:53;0.30;;;0.20;;
38940;SDS011;43236;47.208;7.518;2023-04-15T12:02:40;0.40;;;0.20;;
38940;SDS011;43236;47.208;7.518;2023-04-15T12:05:29;0.38;;;0.20;;
38940;SDS011;43236;47.208;7.518;2023-04-15T12:08:16;1.17;;;0.52;;
38940;SDS011;43236;47.208;7.518;2023-04-15T12:11:03;0.77;;;0.30;;
38940;SDS011;43236;47.208;7.518;2023-04-15T12:13:52;0.52;;;0.25;;
38940;SDS011;43236;47.208;7.518;2023-04-15T12:16:41;6.65;;;2.90;;
38940;SDS011;43236;47.208;7.518;2023-04-15T12:19:30;2.88;;;1.50;;
38940;SDS011;43236;47.208;7.518;2023-04-15T12:22:22;2.45;;;0.93;;
38940;SDS011;43236;47.208;7.518;2023-04-15T12:25:09;2.08;;;0.80;;
38940;SDS011;43236;47.208;7.518;2023-04-15T12:27:56;1.55;;;0.40;;
38940;SDS011;43236;47.208;7.518;2023-04-15T12:30:47;1.98;;;0.38;;
38940;SDS011;43236;47.208;7.518;2023-04-15T12:33:35;2.95;;;1.23;;
38940;SDS011;43236;47.208;7.518;2023-04-15T12:36:23;1.55;;;0.20;;
38940;SDS011;43236;47.208;7.518;2023-04-15T12:39:11;3.28;;;1.00;;
38940;SDS011;43236;47.208;7.518;2023-04-15T12:41:58;0.10;;;0.10;;
38940;SDS011;43236;47.208;7.518;2023-04-15T12:44:45;0.52;;;0.28;;
38940;SDS011;43236;47.208;7.518;2023-04-15T12:47:32;8.55;;;2.08;;
38940;SDS011;43236;47.208;7.518;2023-04-15T12:50:20;0.20;;;0.20;;
38940;SDS011;43236;47.208;7.518;2023-04-15T12:53:07;3.67;;;1.40;;
38940;SDS011;43236;47.208;7.518;2023-04-15T12:55:56;1.70;;;0.40;;
38940;SDS011;43236;47.208;7.518;2023-04-15T12:58:43;1.10;;;0.35;;
38940;SDS011;43236;47.208;7.518;2023-04-15T13:01:30;0.28;;;0.15;;
38940;SDS011;43236;47.208;7.518;2023-04-15T13:04:17;0.60;;;0.30;;
38940;SDS011;43236;47.208;7.518;2023-04-15T13:07:05;0.10;;;0.10;;
38940;SDS011;43236;47.208;7.518;2023-04-15T13:09:52;0.45;;;0.30;;
38940;SDS011;43236;47.208;7.518;2023-04-15T13:12:40;0.35;;;0.20;;
38940;SDS011;43236;47.208;7.518;2023-04-15T13:15:28;2.50;;;0.80;;
38940;SDS011;43236;47.208;7.518;2023-04-15T13:18:15;7.97;;;2.72;;
38940;SDS011;43236;47.208;7.518;2023-04-15T13:21:02;1.40;;;0.63;;
38940;SDS011;43236;47.208;7.518;2023-04-15T13:23:51;2.95;;;1.48;;
38940;SDS011;43236;47.208;7.518;2023-04-15T13:26:38;1.42;;;0.50;;
38940;SDS011;43236;47.208;7.518;2023-04-15T13:29:27;2.00;;;0.50;;
38940;SDS011;43236;47.208;7.518;2023-04-15T13:32:14;1.38;;;0.22;;
38940;SDS011;43236;47.208;7.518;2023-04-15T13:35:01;0.20;;;0.20;;
38940;SDS011;43236;47.208;7.518;2023-04-15T13:37:49;0.52;;;0.30;;
38940;SDS011;43236;47.208;7.518;2023-04-15T13:40:36;1.42;;;0.40;;
38940;SDS011;43236;47.208;7.518;2023-04-15T13:43:23;2.40;;;0.70;;
38940;SDS011;43236;47.208;7.518;2023-04-15T13:46:12;2.72;;;1.00;;
38940;SDS011;43236;47.208;7.518;2023-04-15T13:48:59;1.15;;;0.50;;
38940;SDS011;43236;47.208;7.518;2023-04-15T13:51:46;1.55;;;0.30;;
38940;SDS011;43236;47.208;7.518;2023-04-15T13:54:33;0.50;;;0.22;;
38940;SDS011;43236;47.208;7.518;2023-04-15T13:57:20;0.65;;;0.20;;
38940;SDS011;43236;47.208;7.518;2023-04-15T14:00:07;0.75;;;0.30;;
38940;SDS011;43236;47.208;7.518;2023-04-15T14:02:57;0.43;;;0.28;;
38940;SDS011;43236;47.208;7.518;2023-04-15T14:05:44;0.75;;;0.30;;
38940;SDS011;43236;47.208;7.518;2023-04-15T14:08:31;0.32;;;0.20;;
38940;SDS011;43236;47.208;7.518;2023-04-15T14:11:18;0.98;;;0.30;;
38940;SDS011;43236;47.208;7.518;2023-04-15T14:14:05;0.70;;;0.20;;
38940;SDS011;43236;47.208;7.518;2023-04-15T14:16:52;0.45;;;0.30;;
38940;SDS011;43236;47.208;7.518;2023-04-15T14:19:41;0.20;;;0.20;;
38940;SDS011;43236;47.208;7.518;2023-04-15T14:22:28;0.50;;;0.30;;
38940;SDS011;43236;47.208;7.518;2023-04-15T14:25:15;0.90;;;0.40;;
38940;SDS011;43236;47.208;7.518;2023-04-15T14:28:02;1.27;;;0.40;;
38940;SDS011;43236;47.208;7.518;2023-04-15T14:30:50;0.30;;;0.20;;
38940;SDS011;43236;47.208;7.518;2023-04-15T14:33:37;1.70;;;0.40;;
38940;SDS011;43236;47.208;7.518;2023-04-15T14:36:26;1.23;;;0.50;;
38940;SDS011;43236;47.208;7.518;2023-04-15T14:39:13;0.47;;;0.40;;
38940;SDS011;43236;47.208;7.518;2023-04-15T14:42:00;0.63;;;0.30;;
38940;SDS011;43236;47.208;7.518;2023-04-15T14:44:47;0.65;;;0.30;;
38940;SDS011;43236;47.208;7.518;2023-04-15T14:47:34;0.50;;;0.30;;
38940;SDS011;43236;47.208;7.518;2023-04-15T14:50:22;0.20;;;0.20;;
38940;SDS011;43236;47.208;7.518;2023-04-15T14:53:10;1.50;;;0.40;;
38940;SDS011;43236;47.208;7.518;2023-04-15T14:55:57;0.63;;;0.40;;
38940;SDS011;43236;47.208;7.518;2023-04-15T14:58:44;0.75;;;0.40;;
38940;SDS011;43236;47.208;7.518;2023-04-15T15:01:32;0.20;;;0.20;;
38940;SDS011;43236;47.208;7.518;2023-04-15T15:04:19;0.25;;;0.20;;
38940;SDS011;43236;47.208;7.518;2023-04-15T15:07:06;3.72;;;1.42;;
38940;SDS011;43236;47.208;7.518;2023-04-15T15:09:54;1.85;;;0.63;;
38940;SDS011;43236;47.208;7.518;2023-04-15T15:12:41;0.22;;;0.20;;
38940;SDS011;43236;47.208;7.518;2023-04-15T15:15:29;0.20;;;0.20;;
38940;SDS011;43236;47.208;7.518;2023-04-15T15:18:16;0.40;;;0.30;;
38940;SDS011;43236;47.208;7.518;2023-04-15T15:21:04;0.77;;;0.30;;
38940;SDS011;43236;47.208;7.518;2023-04-15T15:23:51;0.85;;;0.40;;
38940;SDS011;43236;47.208;7.518;2023-04-15T15:26:39;0.47;;;0.20;;
38940;SDS011;43236;47.208;7.518;2023-04-15T15:29:26;0.70;;;0.32;;
38940;SDS011;43236;47.208;7.518;2023-04-15T15:32:13;0.20;;;0.20;;
38940;SDS011;43236;47.208;7.518;2023-04-15T15:35:00;0.65;;;0.30;;
38940;SDS011;43236;47.208;7.518;2023-04-15T15:37:47;0.47;;;0.20;;
38940;SDS011;43236;47.208;7.518;2023-04-15T15:40:34;1.17;;;0.60;;
38940;SDS011;43236;47.208;7.518;2023-04-15T15:43:23;0.60;;;0.40;;
38940;SDS011;43236;47.208;7.518;2023-04-15T15:46:10;0.57;;;0.30;;
38940;SDS011;43236;47.208;7.518;2023-04-15T15:48:57;2.88;;;0.40;;
38940;SDS011;43236;47.208;7.518;2023-04-15T15:51:44;0.20;;;0.20;;
38940;SDS011;43236;47.208;7.518;2023-04-15T15:54:31;1.98;;;0.30;;
38940;SDS011;43236;47.208;7.518;2023-04-15T15:57:19;0.32;;;0.30;;
38940;SDS011;43236;47.208;7.518;2023-04-15T16:00:08;0.52;;;0.28;;
38940;SDS011;43236;47.208;7.518;2023-04-15T16:02:57;0.25;;;0.20;;
38940;SDS011;43236;47.208;7.518;2023-04-15T16:05:44;0.45;;;0.28;;
38940;SDS011;43236;47.208;7.518;2023-04-15T16:08:32;0.77;;;0.30;;
38940;SDS011;43236;47.208;7.518;2023-04-15T16:11:19;0.70;;;0.38;;
38940;SDS011;43236;47.208;7.518;2023-04-15T16:14:06;0.65;;;0.30;;
38940;SDS011;43236;47.208;7.518;2023-04-15T16:16:54;0.95;;;0.40;;
38940;SDS011;43236;47.208;7.518;2023-04-15T16:19:41;4.47;;;1.50;;
38940;SDS011;43236;47.208;7.518;2023-04-15T16:22:28;0.98;;;0.43;;
38940;SDS011;43236;47.208;7.518;2023-04-15T16:25:15;2.60;;;1.10;;
38940;SDS011;43236;47.208;7.518;2023-04-15T16:28:02;4.15;;;1.92;;
38940;SDS011;43236;47.208;7.518;2023-04-15T16:30:50;6.85;;;2.10;;
38940;SDS011;43236;47.208;7.518;2023-04-15T16:33:38;1.00;;;0.50;;
38940;SDS011;43236;47.208;7.518;2023-04-15T16:36:25;0.52;;;0.30;;
38940;SDS011;43236;47.208;7.518;2023-04-15T16:39:13;0.52;;;0.40;;
38940;SDS011;43236;47.208;7.518;2023-04-15T16:42:01;2.22;;;0.38;;
38940;SDS011;43236;47.208;7.518;2023-04-15T16:44:48;0.52;;;0.30;;
38940;SDS011;43236;47.208;7.518;2023-04-15T16:47:35;2.25;;;0.50;;
38940;SDS011;43236;47.208;7.518;2023-04-15T16:50:24;1.45;;;0.52;;
38940;SDS011;43236;47.208;7.518;2023-04-15T16:53:11;0.30;;;0.22;;